Time;durP1;ratioP1;P1;durP2;ratioP2;P2;SDS_P1;SDS_P2;PMS_P1;PMS_P2;Temp;Humidity;BMP_temperature;BMP_pressure;BME280_temperature;BME280_humidity;BME280_pressure;Samples;Min_cycle;Max_cycle;Signal;HPM_P1;HPM_P2
2022/11/20 00:00:54;;;;;;;28.83;14.13;;;-3275.00;83.30;;;;;;5115094;28;20028;-49
2022/11/20 00:03:19;;;;;;;30.05;13.85;;;-3274.90;83.40;;;;;;5112693;28;20028;-47
2022/11/20 00:05:45;;;;;;;28.75;14.93;;;-3274.90;83.50;;;;;;5114293;28;20051;-50
2022/11/20 00:08:11;;;;;;;26.65;14.50;;;-3274.90;83.60;;;;;;5112805;28;20027;-49
2022/11/20 00:10:38;;;;;;;25.35;14.77;;;-3274.80;83.80;;;;;;5113662;28;20081;-48
2022/11/20 00:13:04;;;;;;;29.00;13.52;;;-3274.80;83.90;;;;;;5113755;28;20074;-49
2022/11/20 00:15:30;;;;;;;20.20;12.38;;;-3274.70;84.10;;;;;;5113628;28;20106;-48
2022/11/20 00:17:56;;;;;;;25.63;13.32;;;-3274.80;84.30;;;;;;5113770;28;20028;-48
2022/11/20 00:20:22;;;;;;;29.55;13.90;;;-3274.80;84.00;;;;;;5116415;28;20105;-48
2022/11/20 00:22:47;;;;;;;33.65;15.82;;;-3274.70;84.30;;;;;;5117643;28;20530;-50
2022/11/20 00:25:13;;;;;;;22.48;13.05;;;-3274.80;84.40;;;;;;5117587;28;20019;-48
2022/11/20 00:27:39;;;;;;;30.85;14.18;;;-3274.90;84.70;;;;;;5117465;28;20102;-49
2022/11/20 00:30:05;;;;;;;27.27;14.80;;;-3275.00;84.20;;;;;;5118471;28;20023;-52
2022/11/20 00:32:31;;;;;;;29.55;16.52;;;-3275.00;83.90;;;;;;5116231;28;20027;-50
2022/11/20 00:34:56;;;;;;;31.50;15.02;;;-3274.90;83.90;;;;;;5117554;28;20093;-50
2022/11/20 00:37:22;;;;;;;27.30;15.30;;;-3274.90;84.20;;;;;;5117212;28;20055;-52
2022/11/20 00:39:48;;;;;;;29.65;15.60;;;-3274.90;84.10;;;;;;5117606;27;20123;-51
2022/11/20 00:42:13;;;;;;;26.15;15.27;;;-3274.90;84.30;;;;;;5117329;28;20472;-51
2022/11/20 00:44:39;;;;;;;34.83;16.52;;;-3274.90;84.40;;;;;;5115929;28;20020;-50
2022/11/20 00:47:05;;;;;;;33.97;16.08;;;-3274.90;84.30;;;;;;5117702;28;20027;-50
2022/11/20 00:49:30;;;;;;;37.30;15.50;;;-3274.90;84.20;;;;;;5117460;28;20020;-49
2022/11/20 00:51:56;;;;;;;39.30;16.90;;;-3274.90;84.50;;;;;;5117169;28;20372;-50
2022/11/20 00:54:21;;;;;;;29.50;15.02;;;-3274.90;84.40;;;;;;5117315;28;20386;-50
2022/11/20 00:56:47;;;;;;;33.60;16.00;;;-3274.80;84.70;;;;;;5117020;28;20026;-50
2022/11/20 00:59:13;;;;;;;36.13;18.90;;;-3274.90;84.50;;;;;;5116970;28;20024;-48
2022/11/20 01:01:38;;;;;;;41.03;18.30;;;-3274.80;84.50;;;;;;5117270;28;20413;-49
2022/11/20 01:04:04;;;;;;;38.80;18.77;;;-3274.70;84.60;;;;;;5117088;28;20031;-48
2022/11/20 01:06:36;;;;;;;33.17;17.90;;;-3274.70;84.80;;;;;;5117020;28;20072;-48
2022/11/20 01:09:05;;;;;;;40.05;18.45;;;-3274.70;85.00;;;;;;5116986;28;20124;-51
2022/11/20 01:11:37;;;;;;;37.35;19.17;;;-3274.70;85.30;;;;;;5117026;28;20023;-51
2022/11/20 01:14:06;;;;;;;38.08;19.33;;;-3274.70;85.30;;;;;;5117634;27;20028;-51
2022/11/20 01:16:35;;;;;;;36.53;19.15;;;-3274.70;85.10;;;;;;5122603;28;20386;-60
2022/11/20 01:19:02;;;;;;;35.75;18.77;;;-3274.70;85.10;;;;;;5116464;27;20023;-61
2022/11/20 01:21:37;;;;;;;35.33;17.90;;;-3274.80;85.30;;;;;;5115181;28;20020;-62
2022/11/20 01:24:04;;;;;;;34.72;17.95;;;-3274.80;84.90;;;;;;5116665;28;20016;-59
2022/11/20 01:26:32;;;;;;;38.85;18.63;;;-3274.70;84.90;;;;;;5116633;28;20023;-60
2022/11/20 01:28:59;;;;;;;36.85;18.35;;;-3274.70;84.90;;;;;;5116597;28;20353;-60
2022/11/20 01:31:28;;;;;;;39.83;20.52;;;-3274.70;85.00;;;;;;5116401;28;20442;-61
2022/11/20 01:33:56;;;;;;;33.08;18.08;;;-3274.60;85.20;;;;;;5116243;28;20055;-59
2022/11/20 01:36:24;;;;;;;31.63;16.17;;;-3274.60;85.30;;;;;;5116204;28;20055;-63
2022/11/20 01:38:54;;;;;;;32.97;17.33;;;-3274.60;85.60;;;;;;5116280;28;20035;-61
2022/11/20 01:44:06;;;;;;;31.60;15.15;;;-3274.60;85.70;;;;;;5116288;28;20035;-62
2022/11/20 01:46:33;;;;;;;35.03;17.58;;;-3274.60;85.70;;;;;;5115993;28;20032;-61
2022/11/20 01:49:19;;;;;;;25.85;14.20;;;-3274.60;85.90;;;;;;5114646;28;20023;-60
2022/11/20 01:51:50;;;;;;;33.58;17.13;;;-3274.50;85.90;;;;;;5116150;28;20034;-60
2022/11/20 01:54:22;;;;;;;33.95;16.25;;;-3274.60;85.80;;;;;;5116311;27;20062;-59
2022/11/20 01:56:51;;;;;;;33.60;16.77;;;-3274.60;85.90;;;;;;5115595;28;20019;-61
2022/11/20 01:59:19;;;;;;;31.05;16.52;;;-3274.60;85.80;;;;;;5114404;28;20027;-62
2022/11/20 02:01:45;;;;;;;37.05;15.70;;;-3274.60;85.90;;;;;;5115510;28;20036;-61
2022/11/20 02:04:13;;;;;;;25.63;14.07;;;-3274.60;85.30;;;;;;5115747;28;20524;-60
2022/11/20 02:06:55;;;;;;;27.23;14.45;;;-3274.60;85.50;;;;;;5115915;28;20015;-60
2022/11/20 02:09:20;;;;;;;26.92;15.00;;;-3274.70;85.50;;;;;;5115947;28;20115;-62
2022/11/20 02:11:46;;;;;;;25.02;13.93;;;-3274.60;85.30;;;;;;5114357;28;20110;-60
2022/11/20 02:14:12;;;;;;;29.35;16.13;;;-3274.60;85.20;;;;;;5115479;28;20486;-58
2022/11/20 02:16:44;;;;;;;27.58;15.05;;;-3274.50;85.30;;;;;;5115459;28;20111;-61
2022/11/20 02:19:23;;;;;;;36.47;15.60;;;-3274.50;85.60;;;;;;5115441;27;20421;-61
2022/11/20 02:22:26;;;;;;;32.08;16.23;;;-3274.40;85.70;;;;;;5115625;28;20019;-61
2022/11/20 02:24:51;;;;;;;28.13;14.73;;;-3274.40;85.90;;;;;;5115322;28;20037;-63
2022/11/20 02:27:18;;;;;;;29.58;15.70;;;-3274.40;86.10;;;;;;5113861;28;20467;-61
2022/11/20 02:30:07;;;;;;;26.45;14.05;;;-3274.40;86.00;;;;;;5115348;28;20039;-61
2022/11/20 02:32:35;;;;;;;32.30;14.43;;;-3274.40;85.90;;;;;;5115839;28;20111;-61
2022/11/20 02:35:30;;;;;;;33.83;14.98;;;-3274.40;86.00;;;;;;5115038;28;20097;-61
2022/11/20 02:38:02;;;;;;;29.48;14.70;;;-3274.40;86.20;;;;;;5114873;27;20425;-60
2022/11/20 02:40:28;;;;;;;27.73;15.55;;;-3274.40;86.20;;;;;;5115180;28;20047;-60
2022/11/20 02:42:55;;;;;;;31.10;14.18;;;-3274.50;86.10;;;;;;5114109;28;20093;-60
2022/11/20 02:45:22;;;;;;;24.70;14.25;;;-3274.50;86.00;;;;;;5114811;28;20015;-60
2022/11/20 02:47:48;;;;;;;31.55;15.27;;;-3274.40;85.80;;;;;;5113885;28;20121;-60
2022/11/20 02:50:14;;;;;;;24.75;13.57;;;-3274.40;86.00;;;;;;5114899;27;20035;-60
2022/11/20 02:52:39;;;;;;;27.48;14.75;;;-3274.40;85.90;;;;;;5115008;28;20031;-60
2022/11/20 02:55:06;;;;;;;40.28;17.80;;;-3274.50;86.00;;;;;;5114775;28;20038;-61
2022/11/20 02:57:31;;;;;;;29.80;15.63;;;-3274.40;85.70;;;;;;5113319;28;20075;-61
2022/11/20 02:59:57;;;;;;;34.88;16.70;;;-3274.30;85.70;;;;;;5114881;28;20026;-60
2022/11/20 03:02:23;;;;;;;38.72;17.80;;;-3274.30;86.00;;;;;;5115208;28;20019;-60
2022/11/20 03:04:48;;;;;;;34.60;16.38;;;-3274.30;86.10;;;;;;5114746;28;20023;-60
2022/11/20 03:07:14;;;;;;;32.85;16.48;;;-3274.40;86.20;;;;;;5114475;28;20317;-59
2022/11/20 03:09:40;;;;;;;35.47;17.13;;;-3274.40;86.20;;;;;;5114835;28;20459;-61
2022/11/20 03:12:05;;;;;;;27.63;14.75;;;-3274.30;86.20;;;;;;5114527;28;20019;-60
2022/11/20 03:14:31;;;;;;;37.25;16.65;;;-3274.50;86.40;;;;;;5114862;28;20047;-61
2022/11/20 03:16:57;;;;;;;37.88;16.75;;;-3274.40;86.10;;;;;;5114466;27;20020;-60
2022/11/20 03:19:23;;;;;;;35.60;16.60;;;-3274.50;86.00;;;;;;5112904;28;20031;-61
2022/11/20 03:21:49;;;;;;;38.65;19.92;;;-3274.40;86.00;;;;;;5114733;28;20023;-61
2022/11/20 03:24:14;;;;;;;30.33;17.13;;;-3274.40;86.20;;;;;;5114507;28;20019;-60
2022/11/20 03:26:40;;;;;;;36.90;18.17;;;-3274.50;86.10;;;;;;5114648;28;20020;-62
2022/11/20 03:29:06;;;;;;;31.27;15.80;;;-3274.50;86.10;;;;;;5114334;28;20468;-60
2022/11/20 03:31:37;;;;;;;34.33;16.45;;;-3274.50;86.00;;;;;;5113461;28;20036;-60
2022/11/20 03:34:03;;;;;;;31.60;16.35;;;-3274.40;85.90;;;;;;5114453;28;20420;-61
2022/11/20 03:36:29;;;;;;;33.92;17.38;;;-3274.50;86.10;;;;;;5114259;28;20028;-60
2022/11/20 03:38:56;;;;;;;26.45;14.93;;;-3274.40;86.00;;;;;;5113989;28;20094;-62
2022/11/20 03:41:28;;;;;;;32.63;15.82;;;-3274.30;86.10;;;;;;5113882;28;20413;-60
2022/11/20 03:43:59;;;;;;;33.10;16.58;;;-3274.50;86.50;;;;;;5114032;28;20065;-61
2022/11/20 03:46:26;;;;;;;27.58;15.73;;;-3274.40;86.30;;;;;;5114103;28;20027;-60
2022/11/20 03:48:52;;;;;;;31.17;14.85;;;-3274.40;86.70;;;;;;5114128;28;20447;-61
2022/11/20 03:51:22;;;;;;;31.92;15.63;;;-3274.50;86.50;;;;;;5114044;28;20031;-60
2022/11/20 03:53:49;;;;;;;;;;;-3274.40;86.60;;;;;;5114296;28;20490;-60
2022/11/20 03:56:17;;;;;;;33.45;14.48;;;-3274.40;86.70;;;;;;5113690;28;20275;-61
2022/11/20 03:58:43;;;;;;;33.60;16.80;;;-3274.40;86.80;;;;;;5114709;28;20126;-58
2022/11/20 04:01:20;;;;;;;35.65;15.63;;;-3274.40;86.80;;;;;;5114026;28;20058;-60
2022/11/20 04:03:46;;;;;;;31.10;15.20;;;-3274.40;87.00;;;;;;5114073;28;20098;-59
2022/11/20 04:06:16;;;;;;;31.83;16.38;;;-3274.40;86.70;;;;;;5112283;28;20481;-59
2022/11/20 04:08:42;;;;;;;27.98;15.23;;;-3274.30;86.70;;;;;;5113819;28;20028;-61
2022/11/20 04:11:15;;;;;;;32.17;16.13;;;-3274.40;86.80;;;;;;5112402;28;20031;-60
2022/11/20 04:13:42;;;;;;;27.88;15.48;;;-3274.50;86.80;;;;;;5113637;28;20080;-58
2022/11/20 04:16:09;;;;;;;31.05;15.85;;;-3274.50;86.50;;;;;;5114236;28;20027;-60
2022/11/20 04:18:35;;;;;;;31.58;17.17;;;-3274.40;86.50;;;;;;5113513;28;20032;-61
2022/11/20 04:21:02;;;;;;;27.25;15.00;;;-3274.40;86.50;;;;;;5113574;28;20015;-62
2022/11/20 04:23:28;;;;;;;27.13;15.93;;;-3274.50;86.70;;;;;;5113754;27;20107;-61
2022/11/20 04:25:53;;;;;;;31.52;17.77;;;-3274.70;86.40;;;;;;5113833;28;20102;-60
2022/11/20 04:28:19;;;;;;;33.65;16.38;;;-3274.90;85.80;;;;;;5113587;28;20443;-60
2022/11/20 04:30:45;;;;;;;32.72;16.33;;;-3275.00;85.30;;;;;;5113408;28;20020;-61
2022/11/20 04:33:11;;;;;;;31.77;18.33;;;-3275.10;85.10;;;;;;5113517;28;20395;-61
2022/11/20 04:35:37;;;;;;;29.95;15.70;;;-3275.20;85.00;;;;;;5113584;28;20030;-59
2022/11/20 04:38:04;;;;;;;27.58;15.60;;;-3275.30;84.30;;;;;;5113257;28;20077;-60
2022/11/20 04:40:30;;;;;;;27.73;13.13;;;-3275.40;84.30;;;;;;5113333;28;20020;-60
2022/11/20 04:42:56;;;;;;;33.20;15.35;;;-3275.70;83.60;;;;;;5113356;28;20407;-59
2022/11/20 04:45:23;;;;;;;29.17;15.13;;;-3275.70;83.40;;;;;;5113588;28;20425;-61
2022/11/20 04:47:49;;;;;;;28.17;14.85;;;-3275.70;82.90;;;;;;5113349;28;20585;-60
2022/11/20 04:50:15;;;;;;;30.30;15.95;;;-3275.60;82.60;;;;;;5113408;28;20024;-61
2022/11/20 04:52:41;;;;;;;30.38;14.73;;;-3275.70;83.20;;;;;;5113289;28;20556;-60
2022/11/20 04:55:07;;;;;;;25.85;14.13;;;-3275.70;83.20;;;;;;5111953;28;20023;-60
2022/11/20 04:57:32;;;;;;;28.02;15.40;;;-3275.80;82.40;;;;;;5112862;28;20126;-60
2022/11/20 04:59:58;;;;;;;34.08;16.95;;;-3275.70;82.50;;;;;;5113152;28;20031;-60
2022/11/20 05:02:23;;;;;;;29.17;16.48;;;-3275.70;82.80;;;;;;5113105;28;20026;-60
2022/11/20 05:04:49;;;;;;;29.45;15.73;;;-3275.70;82.90;;;;;;5112365;28;20376;-61
2022/11/20 05:07:15;;;;;;;26.02;13.82;;;-3275.70;83.20;;;;;;5117134;27;20078;-60
2022/11/20 05:09:40;;;;;;;28.17;14.40;;;-3275.70;83.50;;;;;;5116784;28;20016;-58
2022/11/20 05:12:08;;;;;;;32.50;16.40;;;-3275.80;83.10;;;;;;5116962;28;20019;-61
2022/11/20 05:14:33;;;;;;;31.63;17.38;;;-3275.70;83.00;;;;;;5115249;28;20452;-61
2022/11/20 05:16:59;;;;;;;32.72;15.48;;;-3275.70;83.40;;;;;;5116530;27;20098;-61
2022/11/20 05:19:24;;;;;;;30.17;13.88;;;-3275.70;83.70;;;;;;5116360;28;20024;-60
2022/11/20 05:21:50;;;;;;;25.73;15.18;;;-3275.60;83.80;;;;;;5116498;28;20020;-61
2022/11/20 05:24:16;;;;;;;33.85;15.93;;;-3275.70;84.10;;;;;;5116702;28;20073;-61
2022/11/20 05:26:42;;;;;;;31.85;16.15;;;-3275.70;83.70;;;;;;5116507;28;20028;-60
2022/11/20 05:29:10;;;;;;;30.63;15.20;;;-3275.80;83.50;;;;;;5117136;28;20300;-60
2022/11/20 05:31:37;;;;;;;33.45;16.38;;;-3275.80;83.60;;;;;;5116660;27;20024;-60
2022/11/20 05:34:02;;;;;;;28.55;15.93;;;-3275.90;83.60;;;;;;5116973;28;20030;-60
2022/11/20 05:36:29;;;;;;;29.50;16.08;;;-3275.80;83.60;;;;;;5116218;28;20028;-61
2022/11/20 05:38:55;;;;;;;26.38;15.90;;;-3275.80;83.70;;;;;;5116331;28;20035;-61
2022/11/20 05:41:21;;;;;;;30.55;16.58;;;-3275.70;83.70;;;;;;5114936;28;20028;-61
2022/11/20 05:43:48;;;;;;;27.63;16.35;;;-3275.80;84.20;;;;;;5116553;28;20020;-60
2022/11/20 05:46:15;;;;;;;35.03;17.48;;;-3275.70;83.90;;;;;;5116051;28;20073;-60
2022/11/20 05:48:42;;;;;;;27.23;15.93;;;-3275.70;84.10;;;;;;5116186;28;20063;-62
2022/11/20 05:51:10;;;;;;;33.70;17.17;;;-3275.70;84.10;;;;;;5116130;28;20027;-61
2022/11/20 05:53:36;;;;;;;32.60;15.85;;;-3275.70;84.10;;;;;;5116320;28;20513;-60
2022/11/20 05:56:14;;;;;;;34.20;16.13;;;-3275.70;84.30;;;;;;5116479;28;20123;-60
2022/11/20 05:58:40;;;;;;;29.92;15.10;;;-3275.70;84.40;;;;;;5114519;28;20127;-59
2022/11/20 06:01:08;;;;;;;31.67;17.40;;;-3275.40;84.90;;;;;;5116267;28;20024;-62
2022/11/20 06:03:33;;;;;;;31.10;17.15;;;-3275.30;85.40;;;;;;5115756;28;20026;-60
2022/11/20 06:06:04;;;;;;;30.85;16.00;;;-3275.40;85.70;;;;;;5115863;28;20051;-62
2022/11/20 06:08:30;;;;;;;;;;;-3275.40;85.50;;;;;;5115206;28;20464;-60
2022/11/20 06:10:56;;;;;;;28.33;15.30;;;-3275.40;85.70;;;;;;5115576;28;19911;-61
2022/11/20 06:13:21;;;;;;;29.02;15.63;;;-3275.40;85.60;;;;;;5115570;28;20119;-61
2022/11/20 06:15:51;;;;;;;40.90;17.02;;;-3275.40;85.80;;;;;;5115495;28;20047;-60
2022/11/20 06:18:17;;;;;;;28.93;16.40;;;-3275.50;85.80;;;;;;5115696;28;20446;-61
2022/11/20 06:20:43;;;;;;;28.67;16.50;;;-3275.50;85.60;;;;;;5115659;28;20064;-62
2022/11/20 06:23:08;;;;;;;32.30;17.77;;;-3275.60;85.80;;;;;;5115802;28;20099;-59
2022/11/20 06:25:38;;;;;;;30.98;16.23;;;-3275.60;85.60;;;;;;5115688;28;20027;-59
2022/11/20 06:28:04;;;;;;;33.65;16.65;;;-3275.60;85.70;;;;;;5115557;28;20059;-61
2022/11/20 06:30:29;;;;;;;26.30;16.45;;;-3275.60;85.70;;;;;;5115681;28;20028;-61
2022/11/20 06:32:55;;;;;;;29.63;17.02;;;-3275.50;85.50;;;;;;5115264;28;20031;-59
2022/11/20 06:35:20;;;;;;;33.92;17.83;;;-3275.60;85.90;;;;;;5115343;28;20032;-60
2022/11/20 06:37:46;;;;;;;31.23;16.83;;;-3275.50;85.70;;;;;;5115089;28;20099;-59
2022/11/20 15:47:29;;;;;;;35.72;19.67;;;3.20;88.40;;;;;;5112204;27;20187;-62
2022/11/20 15:49:55;;;;;;;42.33;20.13;;;3.30;88.50;;;;;;5111713;28;20031;-62
2022/11/20 15:52:21;;;;;;;41.55;21.00;;;3.30;88.90;;;;;;5111437;28;20476;-60
2022/11/20 15:54:46;;;;;;;43.97;23.33;;;3.40;88.50;;;;;;5111211;28;20030;-61
2022/11/20 15:57:12;;;;;;;38.13;20.70;;;3.40;88.50;;;;;;5109756;28;20026;-60
2022/11/20 15:59:41;;;;;;;42.78;23.30;;;3.40;88.70;;;;;;5111697;28;20401;-62
2022/11/20 16:02:14;;;;;;;39.47;22.42;;;3.40;88.40;;;;;;5110048;28;20055;-63
2022/11/20 16:04:40;;;;;;;41.15;21.50;;;3.40;87.90;;;;;;5111229;28;20329;-63
2022/11/20 16:07:09;;;;;;;37.17;20.83;;;3.30;87.80;;;;;;5111207;28;20027;-62
2022/11/20 16:09:34;;;;;;;39.42;22.10;;;3.40;88.00;;;;;;5111518;28;20375;-61
2022/11/20 16:12:00;;;;;;;39.45;20.85;;;3.40;87.80;;;;;;5111971;28;20016;-61
2022/11/20 16:17:11;;;;;;;44.90;21.02;;;3.50;87.80;;;;;;5111522;28;20061;-63
2022/11/20 16:19:37;;;;;;;38.92;20.80;;;3.60;87.60;;;;;;5111233;28;20020;-62
2022/11/20 16:22:02;;;;;;;37.75;19.42;;;3.50;87.70;;;;;;5109853;28;20035;-63
2022/11/20 16:24:28;;;;;;;40.65;20.20;;;3.50;87.70;;;;;;5109793;28;20031;-63
2022/11/20 16:26:54;;;;;;;43.92;20.67;;;3.50;87.80;;;;;;5111038;28;20108;-66
2022/11/20 16:29:20;;;;;;;45.40;22.65;;;3.50;87.80;;;;;;5110923;28;20031;-61
2022/11/20 16:31:46;;;;;;;34.30;19.15;;;3.60;87.60;;;;;;5110725;28;20039;-62
2022/11/20 16:34:11;;;;;;;34.50;19.00;;;3.60;87.50;;;;;;5110594;28;20031;-63
2022/11/20 16:36:40;;;;;;;36.22;19.05;;;3.60;87.60;;;;;;5110664;28;20050;-62
2022/11/20 16:39:05;;;;;;;40.85;21.70;;;3.50;87.20;;;;;;5110546;28;20026;-61
2022/11/20 16:41:33;;;;;;;43.35;21.88;;;3.50;87.50;;;;;;5109008;28;20016;-60
2022/11/20 16:44:01;;;;;;;34.13;20.40;;;3.50;87.70;;;;;;5110510;28;20024;-60
2022/11/20 16:46:29;;;;;;;47.15;22.63;;;3.40;87.70;;;;;;5110162;28;20143;-61
2022/11/20 16:48:59;;;;;;;42.83;22.80;;;3.50;88.00;;;;;;5110192;28;20519;-60
2022/11/20 16:51:26;;;;;;;;;;;3.50;88.10;;;;;;5109557;28;20015;-60
2022/11/20 16:53:54;;;;;;;43.08;21.98;;;3.50;88.20;;;;;;5110561;28;19904;-61
2022/11/20 16:56:22;;;;;;;43.50;21.30;;;3.50;88.30;;;;;;5108631;28;20020;-61
2022/11/20 16:58:49;;;;;;;41.10;21.20;;;3.50;88.60;;;;;;5096174;28;20077;-60
2022/11/20 17:01:19;;;;;;;41.55;22.90;;;3.50;88.80;;;;;;5096687;28;20388;-60
2022/11/20 17:03:46;;;;;;;46.55;24.75;;;3.40;88.80;;;;;;5096551;28;20130;-60
2022/11/20 17:06:17;;;;;;;45.53;22.52;;;3.50;89.20;;;;;;5096028;28;20028;-60
2022/11/20 17:08:43;;;;;;;;;;;3.50;89.10;;;;;;5095480;28;20025;-61
2022/11/20 17:11:10;;;;;;;52.67;22.85;;;3.50;89.10;;;;;;5096164;28;19904;-62
2022/11/20 17:13:36;;;;;;;52.67;26.98;;;3.50;89.00;;;;;;5096029;28;20388;-62
2022/11/20 17:16:11;;;;;;;49.97;24.38;;;3.50;89.10;;;;;;5096908;28;20098;-61
2022/11/20 17:18:37;;;;;;;51.83;26.45;;;3.60;89.20;;;;;;5094760;28;20032;-60
2022/11/20 17:21:04;;;;;;;55.85;27.23;;;3.50;89.20;;;;;;5094747;28;20020;-61
2022/11/20 17:23:31;;;;;;;51.90;24.33;;;3.30;89.80;;;;;;5095838;28;20518;-60
2022/11/20 17:26:18;;;;;;;61.60;29.10;;;3.30;90.20;;;;;;5095807;28;20024;-60
2022/11/20 17:28:45;;;;;;;58.63;29.13;;;3.30;90.40;;;;;;5095912;28;20077;-62
2022/11/20 17:31:16;;;;;;;56.97;27.67;;;3.30;90.50;;;;;;5094755;28;20051;-61
2022/11/20 17:33:45;;;;;;;63.30;28.45;;;3.30;90.80;;;;;;5094313;28;20032;-62
2022/11/20 17:36:14;;;;;;;63.10;30.23;;;3.30;90.80;;;;;;5096152;28;20417;-61
2022/11/20 17:38:40;;;;;;;56.53;29.27;;;3.30;91.00;;;;;;5077454;28;20055;-61
2022/11/20 17:41:21;;;;;;;64.97;29.17;;;3.30;91.10;;;;;;5095553;28;20384;-61
2022/11/20 17:43:47;;;;;;;59.35;26.98;;;3.40;91.30;;;;;;5096266;28;20143;-59
2022/11/20 17:46:18;;;;;;;64.22;29.00;;;3.40;91.10;;;;;;5095543;28;20097;-60
2022/11/20 17:48:45;;;;;;;69.00;29.05;;;3.30;91.20;;;;;;5095972;28;20095;-61
2022/11/20 17:51:13;;;;;;;63.50;29.70;;;3.20;91.60;;;;;;5095437;28;20405;-63
2022/11/20 17:53:43;;;;;;;66.88;28.08;;;3.30;91.80;;;;;;5095675;28;20077;-60
2022/11/20 17:58:54;;;;;;;69.30;30.00;;;3.30;92.10;;;;;;5095552;28;20058;-62
2022/11/20 18:01:21;;;;;;;65.75;28.70;;;3.30;92.30;;;;;;5095571;28;20480;-62
2022/11/20 18:03:47;;;;;;;69.22;30.80;;;3.30;92.30;;;;;;5095153;28;20092;-60
2022/11/20 18:06:21;;;;;;;63.35;29.20;;;3.30;92.20;;;;;;5094930;28;20107;-60
2022/11/20 18:08:48;;;;;;;80.55;33.30;;;3.40;92.30;;;;;;5094310;28;20111;-61
2022/11/20 18:11:18;;;;;;;71.10;31.38;;;3.50;92.40;;;;;;5093757;28;20031;-62
2022/11/20 18:16:34;;;;;;;69.93;32.78;;;3.50;92.30;;;;;;5095385;28;20038;-59
2022/11/20 18:19:00;;;;;;;57.08;27.33;;;3.60;92.40;;;;;;5095121;28;20076;-60
2022/11/20 18:21:28;;;;;;;60.80;30.35;;;3.50;92.40;;;;;;5095355;28;20048;-61
2022/11/20 18:23:55;;;;;;;61.05;28.42;;;3.60;92.40;;;;;;5093940;28;20518;-61
2022/11/20 18:26:21;;;;;;;65.97;29.92;;;3.60;92.40;;;;;;5095290;28;20384;-60
2022/11/20 18:28:47;;;;;;;56.78;27.75;;;3.70;92.40;;;;;;5094483;28;20051;-63
2022/11/20 18:31:12;;;;;;;64.05;31.13;;;3.80;92.40;;;;;;5095287;28;20051;-61
2022/11/20 18:33:38;;;;;;;61.50;29.63;;;3.80;92.40;;;;;;5095642;28;20509;-62
2022/11/20 18:36:09;;;;;;;69.57;30.08;;;3.70;92.40;;;;;;5095369;28;20407;-61
2022/11/20 18:38:34;;;;;;;65.57;28.25;;;3.70;92.40;;;;;;5094953;28;20028;-63
2022/11/20 18:41:00;;;;;;;72.40;32.25;;;3.70;92.40;;;;;;5094971;28;20134;-59
2022/11/20 18:46:09;;;;;;;64.68;28.98;;;3.70;92.40;;;;;;5094213;28;20132;-62
2022/11/20 18:48:35;;;;;;;62.78;29.10;;;3.80;92.50;;;;;;5093469;28;20059;-60
2022/11/20 18:51:10;;;;;;;62.58;29.02;;;3.70;92.40;;;;;;5094207;28;20544;-61
2022/11/20 18:53:36;;;;;;;72.90;28.40;;;3.80;92.30;;;;;;5094785;28;20473;-62
2022/11/20 18:56:06;;;;;;;55.33;27.58;;;3.70;92.40;;;;;;5094713;28;20024;-62
2022/11/20 18:58:31;;;;;;;59.97;27.67;;;3.80;92.70;;;;;;5094121;28;20028;-61
2022/11/20 19:01:07;;;;;;;60.22;29.88;;;3.80;92.60;;;;;;5094654;28;20032;-60
2022/11/20 19:03:33;;;;;;;61.45;26.23;;;3.80;92.60;;;;;;5094340;28;20038;-61
2022/11/20 19:05:59;;;;;;;69.55;29.17;;;3.80;92.60;;;;;;5094085;28;20028;-62
2022/11/20 19:08:25;;;;;;;60.15;29.33;;;3.80;92.60;;;;;;5093960;28;20384;-61
2022/11/20 19:10:51;;;;;;;65.35;28.15;;;3.80;92.50;;;;;;5094336;28;20031;-60
2022/11/20 19:13:16;;;;;;;72.90;28.67;;;3.80;92.50;;;;;;5093923;28;20020;-62
2022/11/20 19:15:42;;;;;;;64.57;28.00;;;3.90;92.60;;;;;;5094296;28;20048;-61
2022/11/20 19:18:07;;;;;;;77.43;28.73;;;3.80;92.60;;;;;;5094489;28;20020;-62
2022/11/20 19:20:33;;;;;;;65.78;29.67;;;3.80;92.70;;;;;;5092447;28;20035;-61
2022/11/20 19:22:59;;;;;;;64.18;29.83;;;3.90;92.70;;;;;;5093679;28;20028;-63
2022/11/20 19:25:25;;;;;;;56.30;28.10;;;3.90;92.70;;;;;;5093758;28;20024;-60
2022/11/20 19:27:50;;;;;;;60.58;29.23;;;3.80;92.70;;;;;;5094045;28;20035;-61
2022/11/20 19:30:16;;;;;;;59.58;28.33;;;3.80;92.70;;;;;;5093939;28;20493;-62
2022/11/20 19:32:42;;;;;;;70.35;30.80;;;3.90;92.80;;;;;;5094196;28;20042;-62
2022/11/20 19:35:08;;;;;;;75.05;32.75;;;3.90;92.70;;;;;;5094871;28;20533;-61
2022/11/20 19:37:34;;;;;;;65.10;30.08;;;3.90;92.80;;;;;;5094957;28;20023;-62
2022/11/20 19:40:03;;;;;;;60.88;31.10;;;3.90;93.00;;;;;;5093597;28;20020;-60
2022/11/20 19:42:29;;;;;;;64.90;30.63;;;4.00;93.00;;;;;;5093830;28;20361;-61
2022/11/20 19:44:57;;;;;;;62.88;30.13;;;4.00;93.00;;;;;;5093907;28;20021;-62
2022/11/20 19:47:23;;;;;;;74.95;29.70;;;4.00;92.90;;;;;;5093474;28;20074;-61
2022/11/20 19:49:48;;;;;;;66.57;29.25;;;4.00;93.00;;;;;;5093769;28;20380;-61
2022/11/20 19:52:14;;;;;;;73.07;30.08;;;4.10;93.00;;;;;;5093552;28;20028;-62
2022/11/20 19:54:40;;;;;;;74.60;31.10;;;4.00;92.90;;;;;;5093869;28;20349;-61
2022/11/20 19:57:05;;;;;;;71.32;29.40;;;3.90;92.90;;;;;;5093334;28;20081;-61
2022/11/20 19:59:31;;;;;;;76.85;31.85;;;4.00;93.00;;;;;;5093629;28;20028;-61
2022/11/20 20:01:57;;;;;;;73.15;31.50;;;4.00;93.10;;;;;;5093373;28;20094;-61
2022/11/20 20:04:23;;;;;;;65.82;30.00;;;3.90;93.20;;;;;;5092290;28;20024;-62
2022/11/20 20:06:49;;;;;;;67.32;30.27;;;4.00;93.30;;;;;;5093492;28;20490;-61
2022/11/20 20:09:15;;;;;;;65.07;31.02;;;4.10;93.30;;;;;;5093923;28;20487;-62
2022/11/20 20:11:44;;;;;;;79.30;34.10;;;4.00;93.20;;;;;;5093806;28;20020;-61
2022/11/20 20:14:13;;;;;;;91.60;35.53;;;4.00;93.30;;;;;;5092270;28;20020;-62
2022/11/20 20:16:39;;;;;;;77.85;33.72;;;4.00;93.40;;;;;;5093502;28;20039;-63
2022/11/20 20:19:05;;;;;;;87.13;36.80;;;3.90;93.40;;;;;;5093232;28;20028;-61
2022/11/20 20:21:33;;;;;;;88.22;34.15;;;3.90;93.60;;;;;;5093078;28;20024;-60
2022/11/20 20:23:59;;;;;;;82.30;35.67;;;4.00;93.60;;;;;;5093247;28;20051;-63
2022/11/20 20:26:28;;;;;;;80.78;35.22;;;4.10;93.70;;;;;;5093177;28;20028;-63
2022/11/20 20:28:53;;;;;;;93.75;37.45;;;4.10;93.60;;;;;;5093385;28;20015;-59
2022/11/20 20:31:23;;;;;;;88.50;35.58;;;4.10;93.60;;;;;;5093332;28;20086;-61
2022/11/20 20:33:49;;;;;;;85.38;37.28;;;3.90;93.50;;;;;;5095256;28;20095;-59
2022/11/20 20:36:16;;;;;;;105.10;40.83;;;3.90;93.60;;;;;;5097274;28;20107;-61
2022/11/20 20:38:43;;;;;;;118.10;43.17;;;3.90;93.70;;;;;;5095634;28;20037;-61
2022/11/20 20:41:09;;;;;;;119.68;46.20;;;4.00;93.80;;;;;;5096964;28;20480;-60
2022/11/20 20:45:05;;;;;;;117.10;45.55;;;4.00;93.80;;;;;;5096946;28;20036;-60
2022/11/20 20:46:22;;;;;;;117.53;46.03;;;4.00;93.90;;;;;;5096473;28;20050;-62
2022/11/20 20:48:47;;;;;;;113.22;45.60;;;4.00;94.00;;;;;;5096979;28;20024;-60
2022/11/20 20:51:13;;;;;;;138.40;47.72;;;4.10;94.00;;;;;;5096830;28;20103;-61
2022/11/20 20:53:39;;;;;;;115.75;44.67;;;4.10;93.90;;;;;;5096766;28;20021;-61
2022/11/20 20:56:05;;;;;;;119.65;47.42;;;4.20;93.90;;;;;;5095519;28;20476;-60
2022/11/20 20:58:30;;;;;;;109.25;43.83;;;4.00;93.60;;;;;;5096447;28;20024;-62
2022/11/20 21:01:24;;;;;;;100.80;40.28;;;4.00;93.60;;;;;;5096905;28;20032;-62
2022/11/20 21:03:50;;;;;;;93.03;38.92;;;4.00;93.70;;;;;;5094690;28;20039;-60
2022/11/20 21:06:15;;;;;;;77.95;35.38;;;4.00;93.70;;;;;;5096489;28;20177;-61
2022/11/20 21:08:41;;;;;;;80.75;34.08;;;4.00;93.60;;;;;;5095880;28;20027;-59
2022/11/20 21:11:14;;;;;;;78.90;35.22;;;4.00;93.60;;;;;;5096034;28;20021;-61
2022/11/20 21:13:42;;;;;;;85.70;34.97;;;4.00;93.50;;;;;;5096107;28;20059;-62
2022/11/20 21:16:08;;;;;;;73.80;32.97;;;4.00;93.40;;;;;;5095815;28;20036;-60
2022/11/20 21:18:34;;;;;;;78.70;32.10;;;4.00;93.40;;;;;;5095900;28;20480;-60
2022/11/20 21:23:47;;;;;;;66.80;31.13;;;3.80;93.30;;;;;;5096511;28;20039;-61
2022/11/20 21:26:14;;;;;;;72.57;30.90;;;3.80;93.40;;;;;;5095854;28;20028;-61
2022/11/20 21:28:40;;;;;;;66.97;28.75;;;3.90;93.40;;;;;;5096873;28;20020;-61
2022/11/20 21:31:08;;;;;;;64.30;29.55;;;3.90;93.50;;;;;;5096125;28;20028;-61
2022/11/20 21:33:44;;;;;;;67.55;30.25;;;3.80;93.30;;;;;;5096340;28;20115;-61
2022/11/20 21:36:12;;;;;;;62.88;28.20;;;3.80;93.40;;;;;;5095729;28;20032;-61
2022/11/20 21:38:38;;;;;;;56.55;27.27;;;3.90;93.40;;;;;;5095491;28;20024;-61
2022/11/20 21:41:06;;;;;;;58.45;26.90;;;4.00;93.40;;;;;;5095564;28;20028;-59